sensor_id;sensor_type;location;lat;lon;timestamp;pressure;altitude;pressure_sealevel;temperature;humidity
73024;BME280;72676;47.526;8.538;2023-09-07T00:01:30;96707.84;;;22.78;61.10
73024;BME280;72676;47.526;8.538;2023-09-07T00:03:58;96709.91;;;22.76;61.43
73024;BME280;72676;47.526;8.538;2023-09-07T00:06:25;96707.00;;;22.71;61.41
73024;BME280;72676;47.526;8.538;2023-09-07T00:08:52;96710.94;;;22.69;60.23
73024;BME280;72676;47.526;8.538;2023-09-07T00:11:19;96709.47;;;22.73;60.76
73024;BME280;72676;47.526;8.538;2023-09-07T00:13:45;96712.56;;;22.76;60.83
73024;BME280;72676;47.526;8.538;2023-09-07T00:16:12;96708.66;;;22.72;59.58
73024;BME280;72676;47.526;8.538;2023-09-07T00:18:38;96701.66;;;22.65;59.37
73024;BME280;72676;47.526;8.538;2023-09-07T00:21:05;96697.56;;;22.69;59.73
73024;BME280;72676;47.526;8.538;2023-09-07T00:23:31;96698.97;;;22.65;59.83
73024;BME280;72676;47.526;8.538;2023-09-07T00:25:57;96704.50;;;22.57;60.05
73024;BME280;72676;47.526;8.538;2023-09-07T00:28:24;96706.97;;;22.52;59.72
73024;BME280;72676;47.526;8.538;2023-09-07T00:30:50;96713.56;;;22.62;59.90
73024;BME280;72676;47.526;8.538;2023-09-07T00:33:17;96702.50;;;22.65;59.75
73024;BME280;72676;47.526;8.538;2023-09-07T00:35:43;96711.06;;;22.54;60.14
73024;BME280;72676;47.526;8.538;2023-09-07T00:38:11;96702.66;;;22.57;59.60
73024;BME280;72676;47.526;8.538;2023-09-07T00:40:38;96704.94;;;22.60;59.37
73024;BME280;72676;47.526;8.538;2023-09-07T00:43:04;96705.97;;;22.66;59.09
73024;BME280;72676;47.526;8.538;2023-09-07T00:45:31;96706.19;;;22.64;59.42
73024;BME280;72676;47.526;8.538;2023-09-07T00:47:57;96704.06;;;22.47;60.53
73024;BME280;72676;47.526;8.538;2023-09-07T00:50:24;96712.09;;;22.53;59.76
73024;BME280;72676;47.526;8.538;2023-09-07T00:52:51;96706.13;;;22.51;59.88
73024;BME280;72676;47.526;8.538;2023-09-07T00:55:18;96704.72;;;22.55;60.08
73024;BME280;72676;47.526;8.538;2023-09-07T00:57:44;96708.63;;;22.53;59.46
73024;BME280;72676;47.526;8.538;2023-09-07T01:00:14;96712.50;;;22.50;60.05
73024;BME280;72676;47.526;8.538;2023-09-07T01:02:40;96703.63;;;22.43;59.74
73024;BME280;72676;47.526;8.538;2023-09-07T01:05:11;96700.75;;;22.38;60.13
73024;BME280;72676;47.526;8.538;2023-09-07T01:07:43;96706.88;;;22.39;59.81
73024;BME280;72676;47.526;8.538;2023-09-07T01:10:12;96700.25;;;22.22;60.11
73024;BME280;72676;47.526;8.538;2023-09-07T01:12:40;96697.63;;;22.28;60.19
73024;BME280;72676;47.526;8.538;2023-09-07T01:15:06;96701.09;;;22.22;59.92
73024;BME280;72676;47.526;8.538;2023-09-07T01:17:33;96700.84;;;22.17;60.39
73024;BME280;72676;47.526;8.538;2023-09-07T01:20:05;96698.13;;;22.04;60.45
73024;BME280;72676;47.526;8.538;2023-09-07T01:22:37;96712.25;;;21.98;60.86
73024;BME280;72676;47.526;8.538;2023-09-07T01:25:05;96701.97;;;21.95;61.13
73024;BME280;72676;47.526;8.538;2023-09-07T01:27:33;96704.81;;;21.87;60.90
73024;BME280;72676;47.526;8.538;2023-09-07T01:30:00;96702.16;;;21.94;60.49
73024;BME280;72676;47.526;8.538;2023-09-07T01:32:28;96704.25;;;21.98;60.75
73024;BME280;72676;47.526;8.538;2023-09-07T01:34:57;96700.97;;;21.96;60.69
73024;BME280;72676;47.526;8.538;2023-09-07T01:37:24;96699.72;;;21.92;61.20
73024;BME280;72676;47.526;8.538;2023-09-07T01:39:50;96704.41;;;21.90;61.07
73024;BME280;72676;47.526;8.538;2023-09-07T01:42:16;96694.13;;;21.87;61.45
73024;BME280;72676;47.526;8.538;2023-09-07T01:44:43;96690.59;;;21.80;61.66
73024;BME280;72676;47.526;8.538;2023-09-07T01:47:09;96698.25;;;21.83;61.79
73024;BME280;72676;47.526;8.538;2023-09-07T01:49:36;96692.91;;;21.83;61.70
73024;BME280;72676;47.526;8.538;2023-09-07T01:52:02;96698.78;;;21.72;62.01
73024;BME280;72676;47.526;8.538;2023-09-07T01:54:30;96690.78;;;21.72;62.14
73024;BME280;72676;47.526;8.538;2023-09-07T01:56:57;96693.47;;;21.72;61.91
73024;BME280;72676;47.526;8.538;2023-09-07T01:59:24;96691.16;;;21.69;61.88
73024;BME280;72676;47.526;8.538;2023-09-07T02:01:50;96694.69;;;21.76;61.48
73024;BME280;72676;47.526;8.538;2023-09-07T02:04:17;96690.78;;;21.72;61.88
73024;BME280;72676;47.526;8.538;2023-09-07T02:06:43;96697.38;;;21.76;61.83
73024;BME280;72676;47.526;8.538;2023-09-07T02:09:09;96698.41;;;21.75;61.96
73024;BME280;72676;47.526;8.538;2023-09-07T02:11:36;96702.84;;;21.68;62.51
73024;BME280;72676;47.526;8.538;2023-09-07T02:14:03;96692.59;;;21.65;61.78
73024;BME280;72676;47.526;8.538;2023-09-07T02:16:29;96700.19;;;21.68;62.07
73024;BME280;72676;47.526;8.538;2023-09-07T02:19:02;96699.41;;;21.74;62.22
73024;BME280;72676;47.526;8.538;2023-09-07T02:21:30;96697.13;;;21.71;62.35
73024;BME280;72676;47.526;8.538;2023-09-07T02:23:56;96704.50;;;21.69;62.68
73024;BME280;72676;47.526;8.538;2023-09-07T02:26:23;96706.94;;;21.64;62.30
73024;BME280;72676;47.526;8.538;2023-09-07T02:28:49;96705.59;;;21.54;63.03
73024;BME280;72676;47.526;8.538;2023-09-07T02:31:16;96702.34;;;21.58;62.51
73024;BME280;72676;47.526;8.538;2023-09-07T02:33:43;96709.22;;;21.67;62.50
73024;BME280;72676;47.526;8.538;2023-09-07T02:36:10;96707.09;;;21.63;62.46
73024;BME280;72676;47.526;8.538;2023-09-07T02:38:36;96708.19;;;21.68;62.44
73024;BME280;72676;47.526;8.538;2023-09-07T02:41:03;96704.91;;;21.66;62.46
73024;BME280;72676;47.526;8.538;2023-09-07T02:43:29;96706.94;;;21.64;62.57
73024;BME280;72676;47.526;8.538;2023-09-07T02:45:56;96713.28;;;21.63;62.80
73024;BME280;72676;47.526;8.538;2023-09-07T02:48:22;96710.16;;;21.60;63.04
73024;BME280;72676;47.526;8.538;2023-09-07T02:50:49;96703.19;;;21.59;63.02
73024;BME280;72676;47.526;8.538;2023-09-07T02:53:17;96704.78;;;21.53;63.30
73024;BME280;72676;47.526;8.538;2023-09-07T02:55:43;96709.88;;;21.48;63.50
73024;BME280;72676;47.526;8.538;2023-09-07T02:58:10;96710.03;;;21.40;63.35
73024;BME280;72676;47.526;8.538;2023-09-07T03:00:42;96708.97;;;21.35;63.90
73024;BME280;72676;47.526;8.538;2023-09-07T03:03:11;96705.84;;;21.31;63.69
73024;BME280;72676;47.526;8.538;2023-09-07T03:05:42;96705.81;;;21.25;64.06
73024;BME280;72676;47.526;8.538;2023-09-07T03:08:09;96706.00;;;21.23;64.22
73024;BME280;72676;47.526;8.538;2023-09-07T03:10:36;96704.75;;;21.19;64.46
73024;BME280;72676;47.526;8.538;2023-09-07T03:13:04;96707.19;;;21.21;64.05
73024;BME280;72676;47.526;8.538;2023-09-07T03:15:30;96704.31;;;21.16;64.23
73024;BME280;72676;47.526;8.538;2023-09-07T03:17:57;96704.47;;;21.14;64.48
73024;BME280;72676;47.526;8.538;2023-09-07T03:20:23;96692.88;;;21.01;64.73
73024;BME280;72676;47.526;8.538;2023-09-07T03:22:50;96704.38;;;21.02;64.58
73024;BME280;72676;47.526;8.538;2023-09-07T03:25:16;96709.56;;;20.89;64.88
73024;BME280;72676;47.526;8.538;2023-09-07T03:27:43;96702.25;;;20.91;65.25
73024;BME280;72676;47.526;8.538;2023-09-07T03:30:10;96708.19;;;20.93;64.97
73024;BME280;72676;47.526;8.538;2023-09-07T03:32:36;96709.50;;;20.82;65.02
73024;BME280;72676;47.526;8.538;2023-09-07T03:35:04;96709.03;;;20.79;64.97
73024;BME280;72676;47.526;8.538;2023-09-07T03:37:36;96711.72;;;20.79;64.96
73024;BME280;72676;47.526;8.538;2023-09-07T03:40:04;96707.56;;;20.91;64.75
73024;BME280;72676;47.526;8.538;2023-09-07T03:42:31;96706.59;;;20.77;64.98
73024;BME280;72676;47.526;8.538;2023-09-07T03:44:59;96711.13;;;20.83;64.06
73024;BME280;72676;47.526;8.538;2023-09-07T03:47:26;96705.91;;;20.90;64.55
73024;BME280;72676;47.526;8.538;2023-09-07T03:49:56;96712.13;;;20.97;64.26
73024;BME280;72676;47.526;8.538;2023-09-07T03:52:23;96711.22;;;20.90;64.13
73024;BME280;72676;47.526;8.538;2023-09-07T03:54:51;96698.00;;;20.96;64.05
73024;BME280;72676;47.526;8.538;2023-09-07T03:57:19;96704.69;;;20.92;64.09
73024;BME280;72676;47.526;8.538;2023-09-07T03:59:47;96706.50;;;20.71;64.55
73024;BME280;72676;47.526;8.538;2023-09-07T04:02:13;96706.59;;;20.77;64.45
73024;BME280;72676;47.526;8.538;2023-09-07T04:04:41;96705.47;;;20.72;64.42
73024;BME280;72676;47.526;8.538;2023-09-07T04:07:07;96700.56;;;20.69;64.55
73024;BME280;72676;47.526;8.538;2023-09-07T04:09:34;96711.31;;;20.61;65.08
73024;BME280;72676;47.526;8.538;2023-09-07T04:12:02;96709.94;;;20.65;64.50
73024;BME280;72676;47.526;8.538;2023-09-07T04:14:30;96710.81;;;20.72;64.61
73024;BME280;72676;47.526;8.538;2023-09-07T04:16:56;96707.34;;;20.71;64.47
73024;BME280;72676;47.526;8.538;2023-09-07T04:19:23;96706.31;;;20.72;64.42
73024;BME280;72676;47.526;8.538;2023-09-07T04:21:49;96716.91;;;20.66;64.65
73024;BME280;72676;47.526;8.538;2023-09-07T04:24:16;96714.88;;;20.68;64.94
73024;BME280;72676;47.526;8.538;2023-09-07T04:26:42;96712.84;;;20.70;64.95
73024;BME280;72676;47.526;8.538;2023-09-07T04:29:09;96715.06;;;20.66;64.92
73024;BME280;72676;47.526;8.538;2023-09-07T04:31:36;96708.97;;;20.72;64.49
73024;BME280;72676;47.526;8.538;2023-09-07T04:34:03;96714.31;;;20.72;64.79
73024;BME280;72676;47.526;8.538;2023-09-07T04:36:29;96716.28;;;20.64;64.76
73024;BME280;72676;47.526;8.538;2023-09-07T04:38:56;96720.06;;;20.55;64.99
73024;BME280;72676;47.526;8.538;2023-09-07T04:41:22;96720.78;;;20.63;64.38
73024;BME280;72676;47.526;8.538;2023-09-07T04:43:48;96727.69;;;20.58;64.93
73024;BME280;72676;47.526;8.538;2023-09-07T04:46:15;96728.28;;;20.39;66.01
73024;BME280;72676;47.526;8.538;2023-09-07T04:48:43;96732.16;;;20.22;65.96
73024;BME280;72676;47.526;8.538;2023-09-07T04:51:10;96736.84;;;20.20;65.92
73024;BME280;72676;47.526;8.538;2023-09-07T04:53:39;96735.03;;;20.06;66.41
73024;BME280;72676;47.526;8.538;2023-09-07T04:56:07;96735.09;;;19.98;67.00
73024;BME280;72676;47.526;8.538;2023-09-07T04:58:36;96736.94;;;19.83;67.27
73024;BME280;72676;47.526;8.538;2023-09-07T05:01:07;96739.94;;;19.94;67.13
73024;BME280;72676;47.526;8.538;2023-09-07T05:03:35;96745.38;;;20.01;66.88
73024;BME280;72676;47.526;8.538;2023-09-07T05:06:03;96746.75;;;20.11;66.40
73024;BME280;72676;47.526;8.538;2023-09-07T05:08:30;96739.44;;;20.13;66.26
73024;BME280;72676;47.526;8.538;2023-09-07T05:11:06;96747.31;;;20.07;66.25
73024;BME280;72676;47.526;8.538;2023-09-07T05:13:33;96744.94;;;20.12;65.89
73024;BME280;72676;47.526;8.538;2023-09-07T05:16:00;96739.63;;;20.12;66.55
73024;BME280;72676;47.526;8.538;2023-09-07T05:18:31;96740.81;;;20.09;66.27
73024;BME280;72676;47.526;8.538;2023-09-07T05:20:57;96743.75;;;20.14;66.74
73024;BME280;72676;47.526;8.538;2023-09-07T05:23:24;96739.53;;;20.05;66.49
73024;BME280;72676;47.526;8.538;2023-09-07T05:25:54;96734.28;;;19.97;66.78
73024;BME280;72676;47.526;8.538;2023-09-07T05:28:21;96743.09;;;20.12;66.25
73024;BME280;72676;47.526;8.538;2023-09-07T05:30:48;96734.75;;;20.15;66.02
73024;BME280;72676;47.526;8.538;2023-09-07T05:33:16;96744.31;;;20.10;66.42
73024;BME280;72676;47.526;8.538;2023-09-07T05:35:43;96739.06;;;20.16;66.08
73024;BME280;72676;47.526;8.538;2023-09-07T05:38:12;96746.88;;;20.18;66.13
73024;BME280;72676;47.526;8.538;2023-09-07T05:40:40;96750.50;;;20.17;66.17
73024;BME280;72676;47.526;8.538;2023-09-07T05:43:07;96747.97;;;20.23;65.95
73024;BME280;72676;47.526;8.538;2023-09-07T05:45:38;96755.56;;;20.26;66.10
73024;BME280;72676;47.526;8.538;2023-09-07T05:48:06;96759.97;;;20.05;66.54
73024;BME280;72676;47.526;8.538;2023-09-07T05:50:37;96765.56;;;19.95;66.74
73024;BME280;72676;47.526;8.538;2023-09-07T05:53:04;96763.34;;;19.99;66.75
73024;BME280;72676;47.526;8.538;2023-09-07T05:55:31;96763.09;;;20.08;66.80
73024;BME280;72676;47.526;8.538;2023-09-07T05:57:58;96761.97;;;19.88;67.57
73024;BME280;72676;47.526;8.538;2023-09-07T06:00:25;96756.09;;;19.93;67.16
73024;BME280;72676;47.526;8.538;2023-09-07T06:02:52;96758.47;;;19.88;67.55
73024;BME280;72676;47.526;8.538;2023-09-07T06:05:19;96761.06;;;19.96;67.42
73024;BME280;72676;47.526;8.538;2023-09-07T06:07:45;96764.56;;;20.11;67.05
73024;BME280;72676;47.526;8.538;2023-09-07T06:10:12;96761.25;;;20.23;66.80
73024;BME280;72676;47.526;8.538;2023-09-07T06:12:39;96768.59;;;20.36;65.81
73024;BME280;72676;47.526;8.538;2023-09-07T06:15:06;96769.53;;;20.49;65.52
73024;BME280;72676;47.526;8.538;2023-09-07T06:17:32;96766.97;;;20.56;65.06
73024;BME280;72676;47.526;8.538;2023-09-07T06:19:59;96762.19;;;20.66;64.07
73024;BME280;72676;47.526;8.538;2023-09-07T06:22:25;96762.25;;;20.72;64.43
73024;BME280;72676;47.526;8.538;2023-09-07T06:24:52;96758.75;;;20.72;64.40
73024;BME280;72676;47.526;8.538;2023-09-07T06:27:18;96760.41;;;20.73;64.40
73024;BME280;72676;47.526;8.538;2023-09-07T06:29:45;96771.06;;;20.87;63.78
73024;BME280;72676;47.526;8.538;2023-09-07T06:32:11;96760.84;;;20.91;63.87
73024;BME280;72676;47.526;8.538;2023-09-07T06:34:38;96766.16;;;20.91;63.98
73024;BME280;72676;47.526;8.538;2023-09-07T06:37:05;96757.53;;;20.89;63.00
73024;BME280;72676;47.526;8.538;2023-09-07T06:39:31;96760.38;;;21.08;62.20
73024;BME280;72676;47.526;8.538;2023-09-07T06:41:58;96771.09;;;21.14;61.37
73024;BME280;72676;47.526;8.538;2023-09-07T06:44:24;96758.22;;;21.18;61.08
73024;BME280;72676;47.526;8.538;2023-09-07T06:46:51;96755.88;;;21.29;60.56
73024;BME280;72676;47.526;8.538;2023-09-07T06:49:17;96762.78;;;21.24;60.32
73024;BME280;72676;47.526;8.538;2023-09-07T06:51:43;96763.53;;;21.39;59.75
73024;BME280;72676;47.526;8.538;2023-09-07T06:54:10;96763.44;;;21.53;59.14
73024;BME280;72676;47.526;8.538;2023-09-07T06:56:36;96754.75;;;21.45;59.33
73024;BME280;72676;47.526;8.538;2023-09-07T06:59:03;96757.09;;;21.54;58.97
73024;BME280;72676;47.526;8.538;2023-09-07T07:01:29;96762.25;;;21.62;58.59
73024;BME280;72676;47.526;8.538;2023-09-07T07:03:56;96764.81;;;21.70;58.15
73024;BME280;72676;47.526;8.538;2023-09-07T07:06:23;96763.44;;;21.74;58.46
73024;BME280;72676;47.526;8.538;2023-09-07T07:08:51;96766.09;;;21.74;58.69
73024;BME280;72676;47.526;8.538;2023-09-07T07:11:19;96769.00;;;21.79;58.29
73024;BME280;72676;47.526;8.538;2023-09-07T07:13:45;96779.63;;;21.73;58.47
73024;BME280;72676;47.526;8.538;2023-09-07T07:16:12;96773.94;;;21.82;58.01
73024;BME280;72676;47.526;8.538;2023-09-07T07:18:40;96770.44;;;21.82;58.41
73024;BME280;72676;47.526;8.538;2023-09-07T07:21:24;96775.06;;;21.94;58.22
73024;BME280;72676;47.526;8.538;2023-09-07T07:23:51;96775.28;;;21.99;57.88
73024;BME280;72676;47.526;8.538;2023-09-07T07:26:17;96777.78;;;22.07;58.32
73024;BME280;72676;47.526;8.538;2023-09-07T07:28:44;96769.94;;;21.99;58.20
73024;BME280;72676;47.526;8.538;2023-09-07T07:31:27;96775.75;;;22.09;58.04
73024;BME280;72676;47.526;8.538;2023-09-07T07:33:54;96780.69;;;22.12;58.04
73024;BME280;72676;47.526;8.538;2023-09-07T07:36:21;96774.41;;;22.26;57.82
73024;BME280;72676;47.526;8.538;2023-09-07T07:38:47;96773.00;;;22.30;57.81
73024;BME280;72676;47.526;8.538;2023-09-07T07:41:14;96766.00;;;22.29;57.43
73024;BME280;72676;47.526;8.538;2023-09-07T07:43:40;96773.72;;;22.11;58.14
73024;BME280;72676;47.526;8.538;2023-09-07T07:46:08;96770.81;;;22.06;58.24
73024;BME280;72676;47.526;8.538;2023-09-07T07:48:35;96770.13;;;22.32;57.50
73024;BME280;72676;47.526;8.538;2023-09-07T07:51:05;96767.25;;;22.33;57.76
73024;BME280;72676;47.526;8.538;2023-09-07T07:53:35;96774.34;;;22.47;57.40
73024;BME280;72676;47.526;8.538;2023-09-07T07:56:02;96765.06;;;22.43;57.54
73024;BME280;72676;47.526;8.538;2023-09-07T07:58:29;96768.59;;;22.50;57.44
73024;BME280;72676;47.526;8.538;2023-09-07T08:00:56;96770.84;;;22.53;57.52
73024;BME280;72676;47.526;8.538;2023-09-07T08:03:24;96768.19;;;22.53;57.48
73024;BME280;72676;47.526;8.538;2023-09-07T08:05:51;96771.25;;;22.50;57.85
73024;BME280;72676;47.526;8.538;2023-09-07T08:08:17;96768.81;;;22.55;58.06
73024;BME280;72676;47.526;8.538;2023-09-07T08:10:44;96765.34;;;22.68;57.59
73024;BME280;72676;47.526;8.538;2023-09-07T08:13:12;96769.03;;;22.67;57.94
73024;BME280;72676;47.526;8.538;2023-09-07T08:15:38;96774.88;;;22.83;57.21
73024;BME280;72676;47.526;8.538;2023-09-07T08:18:05;96761.53;;;22.90;57.54
73024;BME280;72676;47.526;8.538;2023-09-07T08:20:32;96760.69;;;22.83;58.01
73024;BME280;72676;47.526;8.538;2023-09-07T08:22:59;96764.56;;;22.80;58.33
73024;BME280;72676;47.526;8.538;2023-09-07T08:25:25;96759.25;;;22.87;58.05
73024;BME280;72676;47.526;8.538;2023-09-07T08:27:52;96753.50;;;22.96;58.05
73024;BME280;72676;47.526;8.538;2023-09-07T08:30:22;96758.66;;;23.04;58.02
73024;BME280;72676;47.526;8.538;2023-09-07T08:32:51;96759.75;;;23.16;57.80
73024;BME280;72676;47.526;8.538;2023-09-07T08:35:18;96757.06;;;23.16;57.75
73024;BME280;72676;47.526;8.538;2023-09-07T08:37:45;96757.88;;;23.10;58.11
73024;BME280;72676;47.526;8.538;2023-09-07T08:40:12;96755.19;;;23.10;57.95
73024;BME280;72676;47.526;8.538;2023-09-07T08:42:39;96757.22;;;22.95;58.91
73024;BME280;72676;47.526;8.538;2023-09-07T08:45:07;96752.31;;;23.18;58.56
73024;BME280;72676;47.526;8.538;2023-09-07T08:47:37;96750.66;;;23.11;58.69
73024;BME280;72676;47.526;8.538;2023-09-07T08:50:05;96750.72;;;23.37;58.15
73024;BME280;72676;47.526;8.538;2023-09-07T08:52:34;96752.56;;;23.36;58.58
73024;BME280;72676;47.526;8.538;2023-09-07T08:55:02;96751.53;;;23.50;58.54
73024;BME280;72676;47.526;8.538;2023-09-07T08:57:32;96750.94;;;23.42;59.05
73024;BME280;72676;47.526;8.538;2023-09-07T08:59:59;96748.22;;;23.61;58.41
73024;BME280;72676;47.526;8.538;2023-09-07T09:02:25;96748.00;;;23.76;58.40
73024;BME280;72676;47.526;8.538;2023-09-07T09:04:52;96744.72;;;23.93;57.91
73024;BME280;72676;47.526;8.538;2023-09-07T09:07:20;96744.53;;;23.88;58.17
73024;BME280;72676;47.526;8.538;2023-09-07T09:09:49;96740.81;;;24.02;57.80
73024;BME280;72676;47.526;8.538;2023-09-07T09:12:16;96747.53;;;24.18;57.55
73024;BME280;72676;47.526;8.538;2023-09-07T09:14:44;96742.41;;;24.10;57.92
73024;BME280;72676;47.526;8.538;2023-09-07T09:17:15;96744.63;;;24.32;57.90
73024;BME280;72676;47.526;8.538;2023-09-07T09:19:42;96736.56;;;24.32;58.11
73024;BME280;72676;47.526;8.538;2023-09-07T09:22:09;96739.44;;;24.31;58.19
73024;BME280;72676;47.526;8.538;2023-09-07T09:24:36;96738.22;;;24.33;58.32
73024;BME280;72676;47.526;8.538;2023-09-07T09:27:03;96733.81;;;24.58;57.39
73024;BME280;72676;47.526;8.538;2023-09-07T09:29:34;96728.41;;;24.14;58.82
73024;BME280;72676;47.526;8.538;2023-09-07T09:32:03;96742.69;;;24.45;58.28
73024;BME280;72676;47.526;8.538;2023-09-07T09:34:35;96729.06;;;24.60;57.44
73024;BME280;72676;47.526;8.538;2023-09-07T09:37:03;96730.09;;;24.59;57.81
73024;BME280;72676;47.526;8.538;2023-09-07T09:39:30;96733.59;;;24.53;58.07
73024;BME280;72676;47.526;8.538;2023-09-07T09:41:56;96728.22;;;24.66;57.94
73024;BME280;72676;47.526;8.538;2023-09-07T09:44:23;96721.13;;;24.78;57.32
73024;BME280;72676;47.526;8.538;2023-09-07T09:46:53;96728.81;;;24.99;57.57
73024;BME280;72676;47.526;8.538;2023-09-07T09:49:23;96727.88;;;25.18;56.35
73024;BME280;72676;47.526;8.538;2023-09-07T09:51:50;96728.91;;;25.17;56.08
73024;BME280;72676;47.526;8.538;2023-09-07T09:54:20;96721.47;;;25.19;56.61
73024;BME280;72676;47.526;8.538;2023-09-07T09:56:48;96715.88;;;25.20;56.54
73024;BME280;72676;47.526;8.538;2023-09-07T09:59:15;96714.31;;;25.13;56.87
73024;BME280;72676;47.526;8.538;2023-09-07T10:01:46;96716.84;;;25.01;57.73
73024;BME280;72676;47.526;8.538;2023-09-07T10:04:15;96716.31;;;25.24;57.05
73024;BME280;72676;47.526;8.538;2023-09-07T10:06:50;96708.44;;;25.29;57.52
73024;BME280;72676;47.526;8.538;2023-09-07T10:09:20;96703.88;;;25.54;56.55
73024;BME280;72676;47.526;8.538;2023-09-07T10:11:57;96706.06;;;25.63;56.21
73024;BME280;72676;47.526;8.538;2023-09-07T10:14:23;96706.09;;;25.81;56.03
73024;BME280;72676;47.526;8.538;2023-09-07T10:16:52;96704.56;;;25.92;55.76
73024;BME280;72676;47.526;8.538;2023-09-07T10:19:21;96700.69;;;26.06;55.81
73024;BME280;72676;47.526;8.538;2023-09-07T10:21:49;96700.53;;;26.19;55.40
73024;BME280;72676;47.526;8.538;2023-09-07T10:24:30;96696.66;;;26.15;55.73
73024;BME280;72676;47.526;8.538;2023-09-07T10:27:04;96698.50;;;25.96;56.10
73024;BME280;72676;47.526;8.538;2023-09-07T10:29:42;96699.50;;;26.20;55.31
73024;BME280;72676;47.526;8.538;2023-09-07T10:32:09;96696.19;;;26.36;54.78
73024;BME280;72676;47.526;8.538;2023-09-07T10:34:41;96681.56;;;26.50;54.37
73024;BME280;72676;47.526;8.538;2023-09-07T10:37:11;96690.50;;;26.62;54.45
73024;BME280;72676;47.526;8.538;2023-09-07T10:39:40;96680.97;;;26.66;54.11
73024;BME280;72676;47.526;8.538;2023-09-07T10:42:29;96679.03;;;26.55;54.47
73024;BME280;72676;47.526;8.538;2023-09-07T10:45:08;96676.59;;;26.65;54.83
73024;BME280;72676;47.526;8.538;2023-09-07T10:47:35;96674.06;;;26.70;55.21
73024;BME280;72676;47.526;8.538;2023-09-07T10:50:01;96674.53;;;26.67;55.03
73024;BME280;72676;47.526;8.538;2023-09-07T10:52:29;96677.81;;;26.69;54.38
73024;BME280;72676;47.526;8.538;2023-09-07T10:54:57;96673.47;;;26.68;54.72
73024;BME280;72676;47.526;8.538;2023-09-07T10:57:26;96679.84;;;26.85;54.63
73024;BME280;72676;47.526;8.538;2023-09-07T10:59:53;96673.53;;;26.91;54.25
73024;BME280;72676;47.526;8.538;2023-09-07T11:02:21;96674.75;;;26.95;54.36
73024;BME280;72676;47.526;8.538;2023-09-07T11:04:48;96669.03;;;27.03;54.13
73024;BME280;72676;47.526;8.538;2023-09-07T11:07:15;96673.66;;;27.14;53.98
73024;BME280;72676;47.526;8.538;2023-09-07T11:09:42;96664.75;;;27.25;53.71
73024;BME280;72676;47.526;8.538;2023-09-07T11:12:13;96663.28;;;27.11;53.46
73024;BME280;72676;47.526;8.538;2023-09-07T11:14:40;96671.31;;;27.29;53.58
73024;BME280;72676;47.526;8.538;2023-09-07T11:17:07;96659.53;;;27.30;54.33
73024;BME280;72676;47.526;8.538;2023-09-07T11:19:34;96657.38;;;27.20;54.22
73024;BME280;72676;47.526;8.538;2023-09-07T11:22:01;96662.09;;;27.36;53.79
73024;BME280;72676;47.526;8.538;2023-09-07T11:24:32;96655.69;;;27.08;54.87
73024;BME280;72676;47.526;8.538;2023-09-07T11:27:02;96651.94;;;27.09;54.54
73024;BME280;72676;47.526;8.538;2023-09-07T11:29:31;96656.56;;;27.20;53.94
73024;BME280;72676;47.526;8.538;2023-09-07T11:32:08;96649.72;;;27.06;54.92
73024;BME280;72676;47.526;8.538;2023-09-07T11:34:46;96643.28;;;26.95;54.78
73024;BME280;72676;47.526;8.538;2023-09-07T11:37:14;96643.72;;;27.22;54.00
73024;BME280;72676;47.526;8.538;2023-09-07T11:39:40;96643.25;;;27.48;53.80
73024;BME280;72676;47.526;8.538;2023-09-07T11:42:07;96640.09;;;27.51;53.37
73024;BME280;72676;47.526;8.538;2023-09-07T11:44:33;96642.66;;;27.69;53.67
73024;BME280;72676;47.526;8.538;2023-09-07T11:47:00;96638.31;;;27.90;52.86
73024;BME280;72676;47.526;8.538;2023-09-07T11:49:26;96637.59;;;28.06;52.68
73024;BME280;72676;47.526;8.538;2023-09-07T11:51:53;96635.47;;;28.08;52.14
73024;BME280;72676;47.526;8.538;2023-09-07T11:54:20;96630.03;;;28.31;51.65
73024;BME280;72676;47.526;8.538;2023-09-07T11:56:46;96631.31;;;28.40;51.82
73024;BME280;72676;47.526;8.538;2023-09-07T11:59:13;96638.19;;;28.48;51.69
73024;BME280;72676;47.526;8.538;2023-09-07T12:01:40;96630.06;;;28.59;50.97
73024;BME280;72676;47.526;8.538;2023-09-07T12:04:06;96629.34;;;28.64;50.61
73024;BME280;72676;47.526;8.538;2023-09-07T12:06:33;96621.59;;;28.67;50.82
73024;BME280;72676;47.526;8.538;2023-09-07T12:09:01;96634.47;;;28.65;50.93
73024;BME280;72676;47.526;8.538;2023-09-07T12:11:27;96627.69;;;28.63;51.03
73024;BME280;72676;47.526;8.538;2023-09-07T12:13:54;96629.78;;;28.61;51.14
73024;BME280;72676;47.526;8.538;2023-09-07T12:16:21;96623.63;;;28.77;50.32
73024;BME280;72676;47.526;8.538;2023-09-07T12:18:47;96620.63;;;28.90;49.90
73024;BME280;72676;47.526;8.538;2023-09-07T12:21:14;96619.09;;;28.94;49.75
73024;BME280;72676;47.526;8.538;2023-09-07T12:23:41;96618.53;;;29.25;49.44
73024;BME280;72676;47.526;8.538;2023-09-07T12:26:07;96615.84;;;29.08;50.05
73024;BME280;72676;47.526;8.538;2023-09-07T12:28:35;96615.50;;;29.05;49.69
73024;BME280;72676;47.526;8.538;2023-09-07T12:31:02;96617.66;;;29.36;49.09
73024;BME280;72676;47.526;8.538;2023-09-07T12:33:29;96609.59;;;29.57;48.16
73024;BME280;72676;47.526;8.538;2023-09-07T12:35:57;96611.03;;;29.81;47.77
73024;BME280;72676;47.526;8.538;2023-09-07T12:38:23;96612.91;;;29.59;48.02
73024;BME280;72676;47.526;8.538;2023-09-07T12:40:54;96613.94;;;29.42;48.10
73024;BME280;72676;47.526;8.538;2023-09-07T12:43:20;96620.34;;;29.19;47.91
73024;BME280;72676;47.526;8.538;2023-09-07T12:45:47;96611.75;;;29.39;48.05
73024;BME280;72676;47.526;8.538;2023-09-07T12:48:13;96600.47;;;29.58;47.86
73024;BME280;72676;47.526;8.538;2023-09-07T12:50:40;96606.63;;;29.75;47.07
73024;BME280;72676;47.526;8.538;2023-09-07T12:53:07;96601.00;;;29.98;46.30
73024;BME280;72676;47.526;8.538;2023-09-07T12:55:33;96606.00;;;30.06;46.42
73024;BME280;72676;47.526;8.538;2023-09-07T12:58:00;96602.13;;;30.02;45.24
73024;BME280;72676;47.526;8.538;2023-09-07T13:00:27;96605.25;;;30.11;44.51
73024;BME280;72676;47.526;8.538;2023-09-07T13:02:55;96598.13;;;30.26;43.99